createdAt,value
2022-08-09T00:00:32.224Z,85
2022-08-09T00:01:42.850Z,85
2022-08-09T00:02:32.447Z,85
2022-08-09T00:04:06.321Z,85
2022-08-09T00:04:34.598Z,85
2022-08-09T00:06:19.162Z,85
2022-08-09T00:06:32.253Z,85
2022-08-09T00:07:44.498Z,85
2022-08-09T00:08:33.130Z,85
2022-08-09T00:09:32.187Z,85
2022-08-09T00:10:32.232Z,85
2022-08-09T00:12:03.442Z,85
2022-08-09T00:12:34.708Z,85
2022-08-09T00:13:32.206Z,85
2022-08-09T00:14:38.127Z,85
2022-08-09T00:15:58.013Z,85
2022-08-09T00:16:36.613Z,85
2022-08-09T00:18:06.019Z,85
2022-08-09T00:18:35.052Z,85
2022-08-09T00:19:32.191Z,86
2022-08-09T00:20:34.229Z,85
2022-08-09T00:21:32.188Z,85
2022-08-09T00:22:32.459Z,86
2022-08-09T00:23:57.071Z,86
2022-08-09T00:24:32.389Z,86
2022-08-09T00:25:32.783Z,86
2022-08-09T00:26:33.156Z,86
2022-08-09T00:27:32.218Z,86
2022-08-09T00:28:32.248Z,86
2022-08-09T00:30:09.824Z,86
2022-08-09T00:30:32.286Z,86
2022-08-09T00:31:59.267Z,86
2022-08-09T00:32:32.705Z,86
2022-08-09T00:33:32.806Z,86
2022-08-09T00:34:33.468Z,86
2022-08-09T00:35:43.495Z,86
2022-08-09T00:36:32.214Z,86
2022-08-09T00:37:32.386Z,86
2022-08-09T00:38:32.191Z,86
2022-08-09T00:40:12.873Z,86
2022-08-09T00:40:32.304Z,86
2022-08-09T00:44:09.871Z,86
2022-08-09T00:44:09.896Z,86
2022-08-09T00:44:25.547Z,86
2022-08-09T00:44:32.565Z,86
2022-08-09T00:45:34.843Z,86
2022-08-09T00:46:56.040Z,86
2022-08-09T00:47:35.826Z,86
2022-08-09T00:48:32.197Z,86
2022-08-09T00:49:32.202Z,87
2022-08-09T00:50:32.187Z,87
2022-08-09T00:51:33.847Z,87
2022-08-09T00:52:32.532Z,87
2022-08-09T00:53:32.214Z,87
2022-08-09T00:54:35.943Z,87
2022-08-09T00:56:03.127Z,87
2022-08-09T00:56:32.266Z,87
2022-08-09T00:57:34.526Z,87
2022-08-09T00:58:32.201Z,87
2022-08-09T00:59:41.433Z,87
2022-08-09T01:00:32.229Z,87
2022-08-09T01:01:44.404Z,87
2022-08-09T01:02:32.289Z,87
2022-08-09T01:03:32.761Z,87
2022-08-09T01:04:32.217Z,87
2022-08-09T01:05:51.841Z,87
2022-08-09T01:06:53.249Z,87
2022-08-09T01:07:37.695Z,88
2022-08-09T01:08:32.262Z,87
2022-08-09T01:09:36.455Z,88
2022-08-09T01:10:32.173Z,88
2022-08-09T01:11:32.465Z,88
2022-08-09T01:12:32.375Z,88
2022-08-09T01:13:53.388Z,88
2022-08-09T01:14:32.793Z,88
2022-08-09T01:15:33.403Z,88
2022-08-09T01:16:32.201Z,88
2022-08-09T01:17:34.188Z,88
2022-08-09T01:18:32.167Z,88
2022-08-09T01:19:40.031Z,88
2022-08-09T01:20:32.196Z,88
2022-08-09T01:21:44.487Z,88
2022-08-09T01:22:32.606Z,88
2022-08-09T01:24:02.941Z,88
2022-08-09T01:24:32.270Z,88
2022-08-09T01:25:32.215Z,88
2022-08-09T01:26:32.237Z,88
2022-08-09T01:27:32.216Z,88
2022-08-09T01:28:32.700Z,88
2022-08-09T01:29:41.058Z,88
2022-08-09T01:30:40.001Z,88
2022-08-09T01:32:32.141Z,88
2022-08-09T01:32:34.109Z,88
2022-08-09T01:33:32.192Z,88
2022-08-09T01:34:32.189Z,88
2022-08-09T01:35:38.363Z,88
2022-08-09T01:36:32.175Z,88
2022-08-09T01:38:05.702Z,88
2022-08-09T01:38:32.212Z,88
2022-08-09T01:39:32.302Z,88
2022-08-09T01:40:32.356Z,88
2022-08-09T01:41:33.609Z,88
2022-08-09T01:42:32.575Z,88
2022-08-09T01:43:51.187Z,88
2022-08-09T01:44:32.371Z,88
2022-08-09T01:45:32.353Z,88
2022-08-09T01:46:32.386Z,88
2022-08-09T01:47:32.317Z,88
2022-08-09T01:48:32.193Z,88
2022-08-09T01:49:38.762Z,88
2022-08-09T01:50:36.880Z,88
2022-08-09T01:51:33.085Z,88
2022-08-09T01:52:32.603Z,88
2022-08-09T01:53:41.448Z,88
2022-08-09T01:54:32.982Z,88
2022-08-09T01:55:32.251Z,88
2022-08-09T01:56:32.162Z,88
2022-08-09T01:57:32.149Z,88
2022-08-09T01:58:32.216Z,88
2022-08-09T01:59:32.704Z,88
2022-08-09T02:00:35.642Z,88
2022-08-09T02:01:58.447Z,88
2022-08-09T02:02:32.810Z,88
2022-08-09T02:03:32.174Z,88
2022-08-09T02:04:32.187Z,88
2022-08-09T02:05:38.013Z,88
2022-08-09T02:06:33.627Z,88
2022-08-09T02:08:39.106Z,88
2022-08-09T02:08:39.345Z,88
2022-08-09T02:09:42.013Z,88
2022-08-09T02:10:32.217Z,88
2022-08-09T02:11:40.245Z,88
2022-08-09T02:12:32.616Z,88
2022-08-09T02:13:37.287Z,88
2022-08-09T02:14:32.190Z,88
2022-08-09T02:15:48.795Z,89
2022-08-09T02:16:35.186Z,89
2022-08-09T02:18:00.424Z,89
2022-08-09T02:18:32.265Z,89
2022-08-09T02:19:35.013Z,89
2022-08-09T02:20:32.744Z,89
2022-08-09T02:21:32.166Z,89
2022-08-09T02:22:35.746Z,89
2022-08-09T02:23:40.002Z,89
2022-08-09T02:24:32.233Z,89
2022-08-09T02:25:33.604Z,89
2022-08-09T02:26:32.187Z,89
2022-08-09T02:27:57.504Z,89
2022-08-09T02:28:32.243Z,89
2022-08-09T02:29:32.767Z,89
2022-08-09T02:30:32.528Z,89
2022-08-09T02:31:34.192Z,89
2022-08-09T02:32:32.341Z,89
2022-08-09T02:33:38.313Z,89
2022-08-09T02:34:41.485Z,89
2022-08-09T02:36:03.294Z,89
2022-08-09T02:36:32.281Z,89
2022-08-09T02:37:32.929Z,89
2022-08-09T02:38:32.200Z,89
2022-08-09T02:39:33.464Z,89
2022-08-09T02:40:32.236Z,89
2022-08-09T02:41:32.166Z,89
2022-08-09T02:42:32.496Z,89
2022-08-09T02:43:47.749Z,89
2022-08-09T02:44:32.303Z,89
2022-08-09T02:45:32.733Z,89
2022-08-09T02:46:32.200Z,89
2022-08-09T02:47:33.923Z,90
2022-08-09T02:48:32.253Z,89
2022-08-09T02:49:38.391Z,89
2022-08-09T02:50:32.195Z,89
2022-08-09T02:51:37.102Z,89
2022-08-09T02:52:32.484Z,90
2022-08-09T02:53:32.152Z,90
2022-08-09T02:54:32.165Z,90
2022-08-09T02:55:46.260Z,90
2022-08-09T02:56:32.161Z,90
2022-08-09T02:57:40.536Z,90
2022-08-09T02:58:36.305Z,90
2022-08-09T02:59:36.344Z,90
2022-08-09T03:00:32.271Z,90
2022-08-09T03:01:43.042Z,90
2022-08-09T03:02:32.620Z,90
2022-08-09T03:03:37.336Z,90
2022-08-09T03:04:32.250Z,89
2022-08-09T03:05:34.643Z,89
2022-08-09T03:06:32.186Z,90
2022-08-09T03:07:32.181Z,90
2022-08-09T03:08:32.181Z,90
2022-08-09T03:09:33.468Z,90
2022-08-09T03:10:32.298Z,90
2022-08-09T03:12:09.736Z,90
2022-08-09T03:12:32.457Z,90
2022-08-09T03:13:43.429Z,90
2022-08-09T03:14:32.315Z,90
2022-08-09T03:16:04.229Z,90
2022-08-09T03:16:32.244Z,90
2022-08-09T03:17:32.274Z,90
2022-08-09T03:18:32.227Z,90
2022-08-09T03:19:58.932Z,90
2022-08-09T03:20:32.295Z,90
2022-08-09T03:21:36.533Z,90
2022-08-09T03:22:32.519Z,90
2022-08-09T03:23:32.335Z,90
2022-08-09T03:24:51.946Z,90
2022-08-09T03:25:58.645Z,90
2022-08-09T03:26:32.385Z,90
2022-08-09T03:27:45.286Z,90
2022-08-09T03:28:32.268Z,90
2022-08-09T03:29:35.691Z,90
2022-08-09T03:30:33.707Z,90
2022-08-09T03:31:32.161Z,90
2022-08-09T03:32:32.550Z,90
2022-08-09T03:33:54.218Z,90
2022-08-09T03:34:32.315Z,90
2022-08-09T03:35:44.278Z,90
2022-08-09T03:36:32.239Z,90
2022-08-09T03:37:56.082Z,89
2022-08-09T03:38:32.292Z,89
2022-08-09T03:39:37.577Z,89
2022-08-09T03:40:32.278Z,89
2022-08-09T03:41:48.403Z,89
2022-08-09T03:42:32.907Z,89
2022-08-09T03:43:33.130Z,89
2022-08-09T03:44:34.246Z,89
2022-08-09T03:46:05.067Z,89
2022-08-09T03:46:32.245Z,89
2022-08-09T03:47:32.373Z,89
2022-08-09T03:48:32.176Z,89
2022-08-09T03:49:35.644Z,89
2022-08-09T03:50:32.182Z,89
2022-08-09T03:51:56.442Z,89
2022-08-09T03:52:32.446Z,89
2022-08-09T03:53:37.008Z,89
2022-08-09T03:54:32.520Z,89
2022-08-09T03:55:36.126Z,89
2022-08-09T03:56:32.201Z,89
2022-08-09T03:57:32.199Z,89
2022-08-09T03:58:32.144Z,89
2022-08-09T03:59:43.210Z,89
2022-08-09T04:00:32.293Z,89
2022-08-09T04:01:32.178Z,89
2022-08-09T04:02:32.687Z,89
2022-08-09T04:03:45.982Z,89
2022-08-09T04:04:36.270Z,89
2022-08-09T04:05:32.331Z,89
2022-08-09T04:06:33.251Z,89
2022-08-09T04:07:47.657Z,89
2022-08-09T04:08:34.075Z,89
2022-08-09T04:09:47.636Z,89
2022-08-09T04:10:32.230Z,89
2022-08-09T04:11:32.146Z,89
2022-08-09T04:12:32.180Z,89
2022-08-09T04:14:37.670Z,89
2022-08-09T04:14:53.194Z,89
2022-08-09T04:16:17.623Z,89
2022-08-09T04:16:32.252Z,89
2022-08-09T04:17:32.167Z,89
2022-08-09T04:18:32.243Z,89
2022-08-09T04:19:42.923Z,89
2022-08-09T04:20:32.657Z,89
2022-08-09T04:21:36.201Z,89
2022-08-09T04:22:32.594Z,89
2022-08-09T04:23:32.148Z,89
2022-08-09T04:24:32.193Z,89
2022-08-09T04:25:32.311Z,89
2022-08-09T04:26:34.943Z,89
2022-08-09T04:27:32.806Z,88
2022-08-09T04:28:34.455Z,88
2022-08-09T04:29:32.178Z,88
2022-08-09T04:30:32.305Z,88
2022-08-09T04:31:37.569Z,88
2022-08-09T04:32:34.012Z,88
2022-08-09T04:33:32.182Z,88
2022-08-09T04:34:32.280Z,88
2022-08-09T04:35:32.630Z,88
2022-08-09T04:36:32.204Z,88
2022-08-09T04:37:45.135Z,88
2022-08-09T04:38:32.161Z,87
2022-08-09T04:39:32.960Z,87
2022-08-09T04:40:36.672Z,87
2022-08-09T04:41:33.782Z,87
2022-08-09T04:42:33.192Z,87
2022-08-09T04:43:33.622Z,87
2022-08-09T04:44:32.177Z,87
2022-08-09T04:45:36.157Z,86
2022-08-09T04:46:57.514Z,86
2022-08-09T04:47:45.164Z,86
2022-08-09T04:48:33.191Z,86
2022-08-09T04:49:53.263Z,86
2022-08-09T04:50:34.998Z,86
2022-08-09T04:51:33.333Z,86
2022-08-09T04:52:32.599Z,85
2022-08-09T04:53:32.337Z,86
2022-08-09T04:54:32.233Z,85
2022-08-09T04:55:32.472Z,85
2022-08-09T04:56:32.184Z,85
2022-08-09T04:57:58.515Z,85
2022-08-09T04:58:33.994Z,85
2022-08-09T04:59:32.204Z,85
2022-08-09T05:00:34.378Z,85
2022-08-09T05:01:33.343Z,85
2022-08-09T05:02:32.567Z,85
2022-08-09T05:03:42.228Z,85
2022-08-09T05:04:32.277Z,85
2022-08-09T05:05:52.098Z,85
2022-08-09T05:06:35.787Z,85
2022-08-09T05:07:32.327Z,85
2022-08-09T05:08:32.153Z,85
2022-08-09T05:09:42.536Z,85
2022-08-09T05:10:32.224Z,85
2022-08-09T05:11:35.992Z,84
2022-08-09T05:12:32.841Z,84
2022-08-09T05:13:33.170Z,84
2022-08-09T05:14:32.959Z,84
2022-08-09T05:15:39.066Z,84
2022-08-09T05:16:32.258Z,84
2022-08-09T05:18:39.244Z,83
2022-08-09T05:18:42.788Z,83
2022-08-09T05:19:45.882Z,83
2022-08-09T05:20:32.186Z,83
2022-08-09T05:21:36.460Z,83
2022-08-09T05:22:36.209Z,83
2022-08-09T05:23:55.319Z,82
2022-08-09T05:24:33.067Z,81
2022-08-09T05:25:32.610Z,80
2022-08-09T05:26:45.741Z,79
2022-08-09T05:27:32.146Z,78
2022-08-09T05:28:32.200Z,78
2022-08-09T05:29:35.554Z,76
2022-08-09T05:30:32.339Z,76
2022-08-09T05:31:45.842Z,75
2022-08-09T05:32:32.441Z,75
2022-08-09T05:33:33.199Z,71
2022-08-09T05:34:32.691Z,72
2022-08-09T05:35:32.179Z,71
2022-08-09T05:36:32.288Z,70
2022-08-09T05:37:32.174Z,69
2022-08-09T05:38:32.164Z,66
2022-08-09T05:39:36.499Z,67
2022-08-09T05:40:32.168Z,69
2022-08-09T05:41:32.170Z,69
2022-08-09T05:42:32.354Z,70
2022-08-09T05:43:32.224Z,71
2022-08-09T05:44:32.606Z,71
2022-08-09T05:45:52.720Z,71
2022-08-09T05:46:32.210Z,70
2022-08-09T05:47:33.216Z,70
2022-08-09T05:48:33.236Z,70
2022-08-09T05:50:23.238Z,70
2022-08-09T05:50:50.627Z,71
2022-08-09T05:51:46.127Z,70
2022-08-09T05:52:33.155Z,70
2022-08-09T05:53:33.504Z,70
2022-08-09T05:54:32.184Z,70
2022-08-09T05:55:32.301Z,69
2022-08-09T05:56:32.176Z,69
2022-08-09T05:57:50.705Z,69
2022-08-09T05:58:32.230Z,69
2022-08-09T05:59:32.179Z,69
2022-08-09T06:00:32.897Z,69
2022-08-09T06:01:33.495Z,68
2022-08-09T06:02:32.624Z,68
2022-08-09T06:03:44.202Z,67
2022-08-09T06:04:35.004Z,67
2022-08-09T06:05:50.110Z,66
2022-08-09T06:06:32.244Z,66
2022-08-09T06:07:32.137Z,66
2022-08-09T06:08:32.201Z,66
2022-08-09T06:09:55.138Z,64
2022-08-09T06:10:32.204Z,64
2022-08-09T06:11:40.963Z,64
2022-08-09T06:12:32.239Z,65
2022-08-09T06:13:34.218Z,66
2022-08-09T06:14:32.159Z,65
2022-08-09T06:15:33.720Z,64
2022-08-09T06:16:34.020Z,65
2022-08-09T06:17:40.273Z,65
2022-08-09T06:18:32.141Z,62
2022-08-09T06:19:33.029Z,64
2022-08-09T06:20:32.162Z,63
2022-08-09T06:21:32.161Z,62
2022-08-09T06:22:32.394Z,63
2022-08-09T06:23:58.236Z,63
2022-08-09T06:24:32.234Z,62
2022-08-09T06:25:32.162Z,62
2022-08-09T06:26:32.168Z,63
2022-08-09T06:27:42.115Z,64
2022-08-09T06:28:32.163Z,65
2022-08-09T06:29:48.252Z,65
2022-08-09T06:30:33.532Z,66
2022-08-09T06:31:40.567Z,64
2022-08-09T06:32:58.853Z,64
2022-08-09T06:33:40.888Z,64
2022-08-09T06:34:32.171Z,63
2022-08-09T06:35:35.726Z,64
2022-08-09T06:36:32.234Z,64
2022-08-09T06:37:32.181Z,63
2022-08-09T06:38:37.412Z,63
2022-08-09T06:39:49.282Z,63
2022-08-09T06:40:33.600Z,63
2022-08-09T06:41:39.737Z,63
2022-08-09T06:42:33.649Z,64
2022-08-09T06:43:34.095Z,64
2022-08-09T06:44:32.160Z,65
2022-08-09T06:46:04.934Z,65
2022-08-09T06:46:40.132Z,65
2022-08-09T06:47:39.870Z,66
2022-08-09T06:48:32.220Z,66
2022-08-09T06:50:11.837Z,65
2022-08-09T06:50:32.273Z,66
2022-08-09T06:51:32.137Z,66
2022-08-09T06:52:32.393Z,66
2022-08-09T06:53:33.191Z,64
2022-08-09T06:54:32.199Z,64
2022-08-09T06:55:32.405Z,62
2022-08-09T06:56:32.171Z,63
2022-08-09T06:58:01.408Z,64
2022-08-09T07:00:46.415Z,64
2022-08-09T07:00:49.653Z,64
2022-08-09T07:00:56.020Z,65
2022-08-09T07:01:35.670Z,65
2022-08-09T07:02:32.671Z,64
2022-08-09T07:03:32.188Z,62
2022-08-09T07:04:32.261Z,62
2022-08-09T07:05:58.570Z,62
2022-08-09T07:06:32.238Z,62
2022-08-09T07:07:59.903Z,62
2022-08-09T07:08:33.073Z,62
2022-08-09T07:09:57.008Z,61
2022-08-09T07:10:32.439Z,61
2022-08-09T07:11:45.555Z,61
2022-08-09T07:12:38.503Z,61
2022-08-09T07:14:04.382Z,62
2022-08-09T07:14:33.169Z,62
2022-08-09T07:15:53.944Z,62
2022-08-09T07:16:42.209Z,60
2022-08-09T07:17:39.849Z,60
2022-08-09T07:18:32.315Z,60
2022-08-09T07:19:35.903Z,61
2022-08-09T07:20:32.164Z,59
2022-08-09T07:21:32.395Z,59
2022-08-09T07:22:34.795Z,59
2022-08-09T07:23:32.143Z,60
2022-08-09T07:24:40.151Z,59
2022-08-09T07:25:32.175Z,59
2022-08-09T07:26:32.243Z,60
2022-08-09T07:27:34.441Z,60
2022-08-09T07:28:34.906Z,59
2022-08-09T07:29:38.026Z,58
2022-08-09T07:30:33.033Z,57
2022-08-09T07:31:38.151Z,57
2022-08-09T07:32:34.310Z,57
2022-08-09T07:33:52.873Z,56
2022-08-09T07:34:32.221Z,56
2022-08-09T07:35:40.873Z,55
2022-08-09T07:36:33.323Z,55
2022-08-09T07:37:32.170Z,55
2022-08-09T07:38:32.222Z,55
2022-08-09T07:39:41.371Z,55
2022-08-09T07:41:00.609Z,54
2022-08-09T07:41:32.862Z,54
2022-08-09T07:42:32.751Z,53
2022-08-09T07:43:32.120Z,53
2022-08-09T07:44:32.931Z,53
2022-08-09T07:45:37.702Z,52
2022-08-09T07:46:32.201Z,53
2022-08-09T07:47:32.237Z,52
2022-08-09T07:48:32.215Z,52
2022-08-09T07:49:35.758Z,50
2022-08-09T07:50:34.852Z,50
2022-08-09T07:52:05.617Z,49
2022-08-09T07:52:32.617Z,50
2022-08-09T07:53:36.409Z,50
2022-08-09T07:54:32.234Z,50
2022-08-09T07:55:41.324Z,50
2022-08-09T07:56:32.260Z,50
2022-08-09T07:57:33.937Z,50
2022-08-09T07:58:32.147Z,47
2022-08-09T07:59:50.960Z,48
2022-08-09T08:00:36.381Z,48
2022-08-09T08:01:34.133Z,50
2022-08-09T08:02:32.443Z,48
2022-08-09T08:03:32.149Z,48
2022-08-09T08:04:32.984Z,46
2022-08-09T08:05:39.088Z,45
2022-08-09T08:06:33.402Z,47
2022-08-09T08:09:00.939Z,47
2022-08-09T08:09:01.672Z,47
2022-08-09T08:09:36.407Z,46
2022-08-09T08:10:34.334Z,46
2022-08-09T08:12:12.058Z,47
2022-08-09T08:12:32.327Z,46
2022-08-09T08:13:39.880Z,48
2022-08-09T08:14:32.258Z,47
2022-08-09T08:15:37.483Z,48
2022-08-09T08:16:32.511Z,47
2022-08-09T08:17:52.637Z,47
2022-08-09T08:18:32.261Z,48
2022-08-09T08:19:33.937Z,48
2022-08-09T08:20:32.669Z,49
2022-08-09T08:21:34.623Z,49
2022-08-09T08:22:32.352Z,48
2022-08-09T08:23:32.166Z,48
2022-08-09T08:24:34.201Z,47
2022-08-09T08:25:43.828Z,47
2022-08-09T08:26:41.931Z,47
2022-08-09T08:27:40.753Z,47
2022-08-09T08:28:35.083Z,46
2022-08-09T08:29:39.516Z,47
2022-08-09T08:30:32.466Z,46
2022-08-09T08:32:02.418Z,45
2022-08-09T08:32:32.288Z,45
2022-08-09T08:33:52.231Z,46
2022-08-09T08:34:33.589Z,45
2022-08-09T08:35:37.125Z,46
2022-08-09T08:36:32.219Z,46
2022-08-09T08:37:41.606Z,47
2022-08-09T08:38:32.236Z,45
2022-08-09T08:39:43.723Z,44
2022-08-09T08:40:34.776Z,44
2022-08-09T08:41:50.507Z,45
2022-08-09T08:42:33.048Z,45
2022-08-09T08:43:32.293Z,44
2022-08-09T08:44:32.190Z,44
2022-08-09T08:45:36.988Z,43
2022-08-09T08:46:41.492Z,43
2022-08-09T08:47:32.216Z,43
2022-08-09T08:48:32.150Z,44
2022-08-09T08:49:47.232Z,45
2022-08-09T08:50:32.164Z,44
2022-08-09T08:51:38.873Z,44
2022-08-09T08:52:58.123Z,45
2022-08-09T08:53:37.372Z,44
2022-08-09T08:54:32.168Z,44
2022-08-09T08:55:32.393Z,44
2022-08-09T08:56:32.176Z,45
2022-08-09T08:57:35.407Z,44
2022-08-09T08:58:32.140Z,44
2022-08-09T08:59:47.128Z,43
2022-08-09T09:00:34.731Z,43
2022-08-09T09:01:44.727Z,44
2022-08-09T09:02:32.368Z,43
2022-08-09T09:03:33.232Z,43
2022-08-09T09:04:37.776Z,43
2022-08-09T09:05:57.942Z,43
2022-08-09T09:06:32.230Z,44
2022-08-09T09:07:32.135Z,44
2022-08-09T09:08:32.216Z,45
2022-08-09T09:09:58.581Z,46
2022-08-09T09:10:32.298Z,47
2022-08-09T09:11:33.883Z,47
2022-08-09T09:12:35.661Z,48
2022-08-09T09:13:41.870Z,48
2022-08-09T09:14:32.220Z,48
2022-08-09T09:15:32.147Z,48
2022-08-09T09:16:35.546Z,49
2022-08-09T09:17:49.465Z,49
2022-08-09T09:18:32.345Z,49
2022-08-09T09:19:41.357Z,48
2022-08-09T09:20:32.237Z,48
2022-08-09T09:21:43.380Z,47
2022-08-09T09:22:32.447Z,47
2022-08-09T09:23:37.579Z,47
2022-08-09T09:24:32.472Z,47
2022-08-09T09:26:03.275Z,46
2022-08-09T09:26:33.445Z,45
2022-08-09T09:28:05.074Z,44
2022-08-09T09:29:02.498Z,44
2022-08-09T09:29:58.111Z,44
2022-08-09T09:30:40.905Z,43
2022-08-09T09:32:03.668Z,43
2022-08-09T09:32:35.425Z,43
2022-08-09T09:33:44.625Z,44
2022-08-09T09:34:32.139Z,43
2022-08-09T09:35:33.199Z,43
2022-08-09T09:36:32.105Z,43
2022-08-09T09:37:32.513Z,43
2022-08-09T09:38:36.566Z,43
2022-08-09T09:39:55.093Z,44
2022-08-09T09:40:34.282Z,44
2022-08-09T09:41:49.042Z,46
2022-08-09T09:42:32.421Z,44
2022-08-09T09:43:41.533Z,44
2022-08-09T09:44:32.270Z,45
2022-08-09T09:45:32.282Z,45
2022-08-09T09:46:42.624Z,45
2022-08-09T09:47:32.707Z,45
2022-08-09T09:48:32.121Z,46
2022-08-09T09:49:56.153Z,45
2022-08-09T09:50:32.193Z,46
2022-08-09T09:51:38.623Z,45
2022-08-09T09:52:37.331Z,45
2022-08-09T09:53:57.279Z,46
2022-08-09T09:54:32.216Z,46
2022-08-09T09:55:33.524Z,46
2022-08-09T09:56:33.725Z,45
2022-08-09T09:58:01.119Z,45
2022-08-09T09:58:32.263Z,45
2022-08-09T09:59:35.181Z,45
2022-08-09T10:00:32.120Z,45
2022-08-09T10:01:38.112Z,45
2022-08-09T10:02:32.290Z,46
2022-08-09T10:03:32.166Z,46
2022-08-09T10:04:32.103Z,46
2022-08-09T10:06:03.963Z,46
2022-08-09T10:06:32.678Z,46
2022-08-09T10:07:32.401Z,46
2022-08-09T10:08:32.103Z,45
2022-08-09T10:09:32.217Z,46
2022-08-09T10:10:32.192Z,45
2022-08-09T10:11:59.105Z,45
2022-08-09T10:12:32.198Z,45
2022-08-09T10:13:45.288Z,45
2022-08-09T10:14:34.328Z,45
2022-08-09T10:16:09.063Z,45
2022-08-09T10:16:58.346Z,46
2022-08-09T10:17:50.653Z,46
2022-08-09T10:18:32.191Z,47
2022-08-09T10:19:35.009Z,47
2022-08-09T10:20:44.468Z,45
2022-08-09T10:21:32.128Z,44
2022-08-09T10:22:33.419Z,44
2022-08-09T10:23:32.137Z,44
2022-08-09T10:24:35.986Z,44
2022-08-09T10:25:34.883Z,44
2022-08-09T10:26:32.320Z,44
2022-08-09T10:27:38.643Z,43
2022-08-09T10:28:32.013Z,43
2022-08-09T10:30:43.980Z,42
2022-08-09T10:32:42.727Z,42
2022-08-09T10:34:09.087Z,43
2022-08-09T10:34:33.995Z,41
2022-08-09T10:35:32.227Z,40
2022-08-09T10:36:31.961Z,40
2022-08-09T10:37:38.913Z,40
2022-08-09T10:38:55.882Z,41
2022-08-09T10:39:49.307Z,40
2022-08-09T10:40:50.034Z,40
2022-08-09T10:41:51.987Z,39
2022-08-09T10:42:56.074Z,40
2022-08-09T10:44:02.323Z,41
2022-08-09T10:45:11.944Z,39
2022-08-09T10:46:07.947Z,40
2022-08-09T10:48:12.762Z,41
2022-08-09T10:48:30.396Z,40
2022-08-09T10:49:19.943Z,39
2022-08-09T10:50:27.077Z,39
2022-08-09T10:51:29.770Z,39
2022-08-09T10:52:32.347Z,39
2022-08-09T10:53:32.160Z,38
2022-08-09T10:54:32.923Z,39
2022-08-09T10:55:35.827Z,39
2022-08-09T10:56:31.995Z,39
2022-08-09T10:57:34.154Z,39
2022-08-09T10:58:33.766Z,39
2022-08-09T10:59:55.767Z,40
2022-08-09T11:00:31.988Z,39
2022-08-09T11:03:06.821Z,40
2022-08-09T11:03:15.111Z,41
2022-08-09T11:03:51.226Z,40
2022-08-09T11:04:32.643Z,41
2022-08-09T11:05:32.227Z,41
2022-08-09T11:06:32.218Z,42
2022-08-09T11:07:57.122Z,42
2022-08-09T11:08:33.423Z,43
2022-08-09T11:09:34.985Z,43
2022-08-09T11:10:32.417Z,42
2022-08-09T11:11:32.138Z,42
2022-08-09T11:12:32.195Z,42
2022-08-09T11:13:50.021Z,42
2022-08-09T11:14:32.319Z,41
2022-08-09T11:15:33.796Z,42
2022-08-09T11:16:34.816Z,42
2022-08-09T11:17:33.241Z,42
2022-08-09T11:18:32.444Z,42
2022-08-09T11:20:10.080Z,43
2022-08-09T11:20:32.037Z,41
2022-08-09T11:21:33.742Z,42
2022-08-09T11:22:32.141Z,41
2022-08-09T11:23:32.154Z,40
2022-08-09T11:24:31.903Z,40
2022-08-09T11:25:45.015Z,38
2022-08-09T11:26:32.128Z,39
2022-08-09T11:28:03.183Z,39
2022-08-09T11:28:34.449Z,40
2022-08-09T11:30:04.303Z,40
2022-08-09T11:30:34.060Z,40
2022-08-09T11:31:33.950Z,40
2022-08-09T11:32:33.591Z,39
2022-08-09T11:33:32.100Z,39
2022-08-09T11:34:32.309Z,40
2022-08-09T11:35:34.871Z,42
2022-08-09T11:36:35.510Z,41
2022-08-09T11:37:41.048Z,41
2022-08-09T11:38:34.111Z,41
2022-08-09T11:39:38.726Z,41
2022-08-09T11:40:31.895Z,42
2022-08-09T11:41:37.890Z,42
2022-08-09T11:42:32.238Z,42
2022-08-09T11:43:32.506Z,41
2022-08-09T11:44:31.871Z,41
2022-08-09T11:45:42.072Z,41
2022-08-09T11:46:33.555Z,41
2022-08-09T11:47:32.105Z,42
2022-08-09T11:48:31.940Z,42
2022-08-09T11:49:42.807Z,42
2022-08-09T11:50:55.374Z,42
2022-08-09T11:52:56.898Z,42
2022-08-09T11:53:21.005Z,42
2022-08-09T11:54:01.569Z,42
2022-08-09T11:54:33.439Z,42
2022-08-09T11:55:35.071Z,41
2022-08-09T11:56:41.349Z,41
2022-08-09T11:57:47.552Z,42
2022-08-09T11:58:33.590Z,41
2022-08-09T11:59:34.132Z,41
2022-08-09T12:00:31.865Z,42
2022-08-09T12:02:01.073Z,41
2022-08-09T12:02:37.008Z,42
2022-08-09T12:03:57.019Z,42
2022-08-09T12:04:37.131Z,42
2022-08-09T12:05:35.774Z,41
2022-08-09T12:06:35.030Z,41
2022-08-09T12:07:41.493Z,41
2022-08-09T12:08:31.851Z,40
2022-08-09T12:09:34.481Z,40
2022-08-09T12:10:39.685Z,41
2022-08-09T12:11:44.685Z,39
2022-08-09T12:12:32.123Z,40
2022-08-09T12:14:07.101Z,40
2022-08-09T12:14:36.861Z,42
2022-08-09T12:15:49.163Z,40
2022-08-09T12:16:38.579Z,40
2022-08-09T12:17:43.055Z,40
2022-08-09T12:18:33.359Z,39
2022-08-09T12:19:32.247Z,40
2022-08-09T12:20:31.817Z,39
2022-08-09T12:21:38.371Z,40
2022-08-09T12:22:32.402Z,39
2022-08-09T12:23:56.434Z,41
2022-08-09T12:24:31.873Z,39
2022-08-09T12:25:37.329Z,39
2022-08-09T12:26:32.591Z,40
2022-08-09T12:28:59.482Z,39
2022-08-09T12:29:00.356Z,40
2022-08-09T12:29:44.634Z,40
2022-08-09T12:30:35.736Z,39
2022-08-09T12:32:02.700Z,39
2022-08-09T12:32:32.434Z,40
2022-08-09T12:33:51.029Z,40
2022-08-09T12:34:33.798Z,41
2022-08-09T12:35:37.420Z,41
2022-08-09T12:36:33.968Z,41
2022-08-09T12:37:32.113Z,41
2022-08-09T12:38:37.806Z,41
2022-08-09T12:39:32.609Z,41
2022-08-09T12:40:31.805Z,41
2022-08-09T12:41:38.248Z,42
2022-08-09T12:42:32.300Z,43
2022-08-09T12:44:06.324Z,42
2022-08-09T12:44:37.485Z,42
2022-08-09T12:45:38.375Z,43
2022-08-09T12:46:32.193Z,42
2022-08-09T12:47:37.153Z,42
2022-08-09T12:48:37.401Z,42
2022-08-09T12:49:33.005Z,42
2022-08-09T12:50:32.178Z,41
2022-08-09T12:51:59.954Z,42
2022-08-09T12:52:52.544Z,42
2022-08-09T12:53:37.264Z,42
2022-08-09T12:54:32.126Z,42
2022-08-09T12:56:14.330Z,41
2022-08-09T12:56:43.226Z,42
2022-08-09T12:57:32.125Z,41
2022-08-09T12:58:32.108Z,41
2022-08-09T12:59:57.957Z,40
2022-08-09T13:00:31.804Z,41
2022-08-09T13:01:32.261Z,41
2022-08-09T13:02:32.999Z,43
2022-08-09T13:03:54.185Z,43
2022-08-09T13:04:36.868Z,44
2022-08-09T13:05:35.466Z,43
2022-08-09T13:06:34.306Z,44
2022-08-09T13:07:51.590Z,43
2022-08-09T13:08:39.671Z,44
2022-08-09T13:09:38.192Z,44
2022-08-09T13:10:34.727Z,45
2022-08-09T13:11:32.136Z,43
2022-08-09T13:12:32.374Z,42
2022-08-09T13:13:38.024Z,42
2022-08-09T13:14:42.268Z,41
2022-08-09T13:15:33.955Z,41
2022-08-09T13:16:31.695Z,42
2022-08-09T13:18:03.879Z,40
2022-08-09T13:18:32.186Z,40
2022-08-09T13:20:08.643Z,40
2022-08-09T13:20:37.372Z,40
2022-08-09T13:22:37.219Z,42
2022-08-09T13:23:00.551Z,41
2022-08-09T13:24:07.353Z,43
2022-08-09T13:24:52.526Z,44
2022-08-09T13:25:32.206Z,44
2022-08-09T13:26:36.716Z,46
2022-08-09T13:27:39.870Z,46
2022-08-09T13:28:34.260Z,46
2022-08-09T13:30:02.955Z,46
2022-08-09T13:30:49.325Z,47
2022-08-09T13:32:19.916Z,47
2022-08-09T13:32:31.737Z,46
2022-08-09T13:33:52.943Z,47
2022-08-09T13:34:32.179Z,47
2022-08-09T13:35:34.486Z,47
2022-08-09T13:36:41.605Z,48
2022-08-09T13:37:52.069Z,48
2022-08-09T13:38:54.706Z,47
2022-08-09T13:41:49.609Z,47
2022-08-09T13:41:55.965Z,48
2022-08-09T13:41:58.321Z,48
2022-08-09T13:42:32.472Z,47
2022-08-09T13:43:38.905Z,47
2022-08-09T13:44:31.680Z,47
2022-08-09T13:46:42.224Z,48
2022-08-09T13:47:16.226Z,48
2022-08-09T13:47:48.845Z,48
2022-08-09T13:48:31.968Z,47
2022-08-09T13:49:37.772Z,48
2022-08-09T13:50:32.086Z,48
2022-08-09T13:51:32.135Z,48
2022-08-09T13:52:31.963Z,49
2022-08-09T13:53:41.296Z,49
2022-08-09T13:54:32.164Z,48
2022-08-09T13:55:34.315Z,49
2022-08-09T13:56:31.666Z,49
2022-08-09T13:57:35.981Z,49
2022-08-09T13:58:32.118Z,50
2022-08-09T13:59:41.585Z,50
2022-08-09T14:00:31.741Z,50
2022-08-09T14:01:56.637Z,50
2022-08-09T14:02:32.164Z,50
2022-08-09T14:04:03.414Z,50
2022-08-09T14:04:31.805Z,49
2022-08-09T14:05:56.707Z,49
2022-08-09T14:06:32.236Z,50
2022-08-09T14:07:41.981Z,49
2022-08-09T14:08:31.829Z,50
2022-08-09T14:09:35.821Z,49
2022-08-09T14:10:46.316Z,49
2022-08-09T14:11:32.206Z,49
2022-08-09T14:12:31.979Z,50
2022-08-09T14:14:15.769Z,50
2022-08-09T14:14:34.951Z,49
2022-08-09T14:16:09.731Z,50
2022-08-09T14:16:31.794Z,50
2022-08-09T14:18:06.417Z,50
2022-08-09T14:18:32.350Z,50